Time;durP1;ratioP1;P1;durP2;ratioP2;P2;SDS_P1;SDS_P2;PMS_P1;PMS_P2;Temp;Humidity;BMP_temperature;BMP_pressure;BME280_temperature;BME280_humidity;BME280_pressure;Samples;Min_cycle;Max_cycle;Signal;HPM_P1;HPM_P2
2023/06/02 00:00:39;;;;;;;11.20;6.78;;;;;;;17.34;60.39;94872.06;5064446;28;20089;-74
2023/06/02 00:03:05;;;;;;;9.27;6.95;;;;;;;17.37;60.49;94862.75;5063649;28;20108;-74
2023/06/02 00:05:31;;;;;;;10.02;6.72;;;;;;;17.36;60.30;94855.66;5064929;28;20128;-74
2023/06/02 00:07:57;;;;;;;8.70;7.30;;;;;;;17.35;60.39;94860.47;5079524;28;20108;-74
2023/06/02 00:10:22;;;;;;;9.77;6.82;;;;;;;17.40;60.02;94861.78;5065251;28;20028;-74
2023/06/02 00:12:48;;;;;;;9.05;6.85;;;;;;;17.37;60.37;94857.97;5064202;28;20499;-74
2023/06/02 00:15:13;;;;;;;11.57;7.32;;;;;;;17.40;59.98;94857.00;5063908;28;20025;-74
2023/06/02 00:17:39;;;;;;;10.52;6.63;;;;;;;17.40;59.89;94859.78;5064061;28;20043;-74
2023/06/02 00:20:05;;;;;;;10.75;6.35;;;;;;;17.40;59.70;94857.00;5065155;28;20025;-73
2023/06/02 00:22:32;;;;;;;8.90;6.60;;;;;;;17.40;60.28;94857.00;5064976;28;20025;-74
2023/06/02 00:24:57;;;;;;;10.88;7.28;;;;;;;17.41;59.81;94854.97;5083617;28;20037;-74
2023/06/02 00:27:23;;;;;;;16.00;7.13;;;;;;;17.40;60.12;94864.56;5067603;28;20023;-74
2023/06/02 00:29:48;;;;;;;11.23;7.10;;;;;;;17.41;59.83;94857.75;5083284;28;20032;-73
2023/06/02 00:32:14;;;;;;;10.15;6.78;;;;;;;17.42;59.63;94854.50;5067933;28;20029;-73
2023/06/02 00:34:39;;;;;;;10.30;7.05;;;;;;;17.42;59.79;94856.50;5072678;28;20080;-73
2023/06/02 00:37:05;;;;;;;7.80;6.72;;;;;;;17.40;60.20;94850.69;5070588;28;20609;-74
2023/06/02 00:39:30;;;;;;;9.05;6.78;;;;;;;17.39;60.18;94858.25;5066851;28;20032;-74
2023/06/02 00:41:56;;;;;;;12.15;7.10;;;;;;;17.40;59.96;94851.44;5068131;28;20029;-73
2023/06/02 00:44:21;;;;;;;8.93;6.45;;;;;;;17.39;60.00;94851.94;5069601;28;20059;-74
2023/06/02 00:46:47;;;;;;;12.85;7.38;;;;;;;17.39;59.76;94855.47;5067810;28;20020;-74
2023/06/02 00:49:12;;;;;;;7.32;6.35;;;;;;;17.37;59.93;94849.63;5068655;28;20020;-74
2023/06/02 00:51:39;;;;;;;10.13;6.20;;;;;;;17.35;60.07;94843.78;5066391;28;20021;-74
2023/06/02 00:54:05;;;;;;;9.45;6.55;;;;;;;17.38;59.89;94848.41;5066867;28;20032;-74
2023/06/02 00:56:31;;;;;;;9.40;6.88;;;;;;;17.36;60.13;94844.56;5067430;28;20029;-74
2023/06/02 00:58:57;;;;;;;12.85;7.60;;;;;;;17.39;59.97;94852.69;5066588;28;20042;-74
2023/06/02 01:01:22;;;;;;;9.30;6.65;;;;;;;17.36;59.95;94841.78;5068108;28;20448;-74
2023/06/02 01:03:49;;;;;;;11.13;6.72;;;;;;;17.31;59.84;94832.09;5070668;28;20025;-74
2023/06/02 01:06:23;;;;;;;10.00;6.38;;;;;;;17.35;60.29;94840.25;5066583;28;20105;-72
2023/06/02 01:08:50;;;;;;;8.35;6.68;;;;;;;17.35;60.01;94841.00;5067253;28;20112;-74
2023/06/02 01:11:16;;;;;;;8.00;6.43;;;;;;;17.36;60.28;94836.22;5067030;28;20025;-74
2023/06/02 01:13:41;;;;;;;12.00;6.97;;;;;;;17.35;59.90;94832.69;5065853;28;20456;-74
2023/06/02 01:16:07;;;;;;;12.00;7.75;;;;;;;17.34;59.83;94836.72;5066529;28;20567;-74
2023/06/02 01:18:35;;;;;;;10.07;6.53;;;;;;;17.32;60.31;94832.88;5067421;28;20040;-74
2023/06/02 01:21:01;;;;;;;8.93;7.55;;;;;;;17.34;60.04;94833.94;5066050;28;20051;-75
2023/06/02 01:23:32;;;;;;;8.85;7.30;;;;;;;17.33;60.35;94834.41;5066473;28;20020;-73
2023/06/02 01:25:57;;;;;;;9.05;6.65;;;;;;;17.33;60.57;94834.41;5066551;28;20477;-74
2023/06/02 01:28:23;;;;;;;7.72;6.82;;;;;;;17.25;60.98;94822.94;5067954;28;20165;-74
2023/06/02 01:30:50;;;;;;;9.35;7.18;;;;;;;17.19;60.91;94825.63;5065530;28;20028;-74
2023/06/02 01:33:21;;;;;;;11.52;7.35;;;;;;;17.20;61.23;94821.63;5066167;28;20028;-74
2023/06/02 01:35:54;;;;;;;10.20;7.43;;;;;;;17.20;61.13;94818.84;5065730;28;20028;-74
2023/06/02 01:38:20;;;;;;;;;;;;;;;17.23;61.31;94826.19;5069332;28;20571;-73
2023/06/02 01:40:46;;;;;;;8.55;7.25;;;;;;;17.16;61.18;94829.38;5066523;28;19912;-74
2023/06/02 01:43:12;;;;;;;12.10;7.63;;;;;;;17.16;61.41;94823.06;5064875;28;20048;-73
2023/06/02 01:45:38;;;;;;;9.77;7.20;;;;;;;17.17;61.45;94821.81;5066299;28;20016;-73
2023/06/02 01:48:04;;;;;;;10.68;7.75;;;;;;;17.16;61.61;94821.06;5066378;28;20066;-73
2023/06/02 01:50:31;;;;;;;10.80;7.97;;;;;;;17.16;61.83;94818.28;5066105;28;20035;-73
2023/06/02 01:52:57;;;;;;;11.80;7.32;;;;;;;17.16;60.94;94820.28;5065000;28;20028;-73
2023/06/02 01:55:22;;;;;;;9.35;7.22;;;;;;;17.09;60.77;94823.44;5065460;28;20450;-73
2023/06/02 01:57:48;;;;;;;13.65;7.32;;;;;;;17.07;60.72;94821.16;5067037;28;20115;-74
2023/06/02 02:00:14;;;;;;;11.65;7.85;;;;;;;17.07;61.09;94818.38;5066201;28;20044;-75
2023/06/02 02:02:40;;;;;;;11.85;7.65;;;;;;;17.07;61.32;94817.63;5066198;28;20025;-74
2023/06/02 02:05:05;;;;;;;11.55;7.63;;;;;;;17.09;60.98;94812.34;5065937;28;20530;-74
2023/06/02 02:07:31;;;;;;;13.13;8.32;;;;;;;17.09;61.78;94815.13;5068072;28;20024;-74
2023/06/02 02:09:59;;;;;;;10.68;8.23;;;;;;;17.08;61.90;94814.34;5065232;28;20040;-74
2023/06/02 02:12:24;;;;;;;11.15;7.90;;;;;;;17.07;61.54;94821.16;5067152;28;20028;-74
2023/06/02 02:14:53;;;;;;;12.82;8.25;;;;;;;17.06;62.16;94814.06;5066305;28;20363;-74
2023/06/02 02:17:19;;;;;;;10.13;7.75;;;;;;;17.08;62.13;94814.34;5064855;28;20025;-73
2023/06/02 02:19:50;;;;;;;12.15;8.05;;;;;;;17.10;62.37;94819.44;5065447;28;20510;-75
2023/06/02 02:22:16;;;;;;;9.65;7.25;;;;;;;17.08;62.02;94814.34;5064345;28;20075;-72
2023/06/02 02:24:41;;;;;;;12.13;7.43;;;;;;;17.08;62.05;94811.56;5066906;28;20503;-73
2023/06/02 02:27:08;;;;;;;10.82;7.80;;;;;;;17.09;62.00;94815.91;5064155;28;20048;-73
2023/06/02 02:29:36;;;;;;;9.85;7.65;;;;;;;17.07;62.15;94812.81;5066780;28;20398;-73
2023/06/02 02:32:02;;;;;;;10.93;8.15;;;;;;;17.10;62.14;94809.09;5067749;28;20024;-74
2023/06/02 02:34:28;;;;;;;13.02;8.10;;;;;;;17.11;62.22;94816.19;5066699;28;20024;-74
2023/06/02 02:36:58;;;;;;;11.05;8.38;;;;;;;17.07;62.24;94815.59;5066676;28;20025;-73
2023/06/02 02:39:24;;;;;;;10.93;7.43;;;;;;;17.07;62.53;94809.28;5063802;28;20529;-74
2023/06/02 02:41:49;;;;;;;10.73;7.28;;;;;;;17.07;62.37;94809.28;5065194;28;20037;-76
2023/06/02 02:44:15;;;;;;;10.70;7.88;;;;;;;17.07;62.50;94812.81;5063492;28;20051;-74
2023/06/02 02:46:40;;;;;;;11.10;7.95;;;;;;;17.07;62.32;94812.06;5066275;28;20514;-74
2023/06/02 02:49:06;;;;;;;14.05;7.13;;;;;;;17.07;62.22;94817.63;5065736;28;20082;-74
2023/06/02 02:51:32;;;;;;;9.27;6.68;;;;;;;17.08;62.38;94810.81;5066093;28;20021;-76
2023/06/02 02:53:57;;;;;;;9.95;7.22;;;;;;;17.10;62.35;94811.09;5064245;28;20035;-74
2023/06/02 02:56:22;;;;;;;9.80;7.07;;;;;;;17.09;62.27;94810.34;5063770;28;20487;-74
2023/06/02 02:58:49;;;;;;;13.80;7.55;;;;;;;17.10;62.19;94811.88;5068853;28;20035;-73
2023/06/02 03:01:15;;;;;;;11.98;7.20;;;;;;;17.09;62.23;94810.34;5068664;28;20033;-74
2023/06/02 03:03:41;;;;;;;11.95;7.78;;;;;;;17.10;62.04;94811.88;5065329;28;20024;-74
2023/06/02 03:06:07;;;;;;;9.80;7.57;;;;;;;17.10;62.51;94808.34;5064793;28;20075;-74
2023/06/02 03:08:32;;;;;;;11.38;7.35;;;;;;;17.12;62.33;94808.59;5081354;28;20031;-74
2023/06/02 03:10:58;;;;;;;12.30;7.45;;;;;;;17.12;62.32;94812.16;5080862;28;20020;-74
2023/06/02 03:13:23;;;;;;;12.95;7.60;;;;;;;17.10;62.65;94811.88;5066281;28;20495;-73
2023/06/02 03:15:49;;;;;;;12.88;7.90;;;;;;;17.13;62.65;94818.47;5065891;28;20043;-73
2023/06/02 03:18:14;;;;;;;12.57;8.38;;;;;;;17.12;62.82;94819.72;5062972;28;20147;-73
2023/06/02 03:20:41;;;;;;;11.25;8.38;;;;;;;17.10;62.90;94817.44;5064579;28;20400;-73
2023/06/02 03:23:06;;;;;;;13.73;9.35;;;;;;;17.10;62.65;94811.88;5063500;28;20035;-74
2023/06/02 03:25:32;;;;;;;12.02;8.02;;;;;;;17.13;62.65;94812.91;5080963;28;20021;-75
2023/06/02 03:27:57;;;;;;;12.38;8.23;;;;;;;17.12;62.58;94812.16;5065489;28;20089;-73
2023/06/02 03:30:23;;;;;;;11.35;8.10;;;;;;;17.14;62.78;94817.97;5080878;28;20028;-76
2023/06/02 03:32:49;;;;;;;11.35;8.00;;;;;;;17.14;62.41;94817.97;5065249;28;20034;-75
2023/06/02 03:35:15;;;;;;;13.65;8.43;;;;;;;17.13;62.71;94810.91;5063326;28;20036;-75
2023/06/02 03:37:40;;;;;;;11.50;7.90;;;;;;;17.17;62.82;94816.25;5065699;28;20521;-75
2023/06/02 03:40:07;;;;;;;10.73;8.30;;;;;;;17.19;62.80;94816.53;5064654;28;20437;-73
2023/06/02 03:42:33;;;;;;;10.10;7.57;;;;;;;17.21;63.00;94820.38;5063738;28;20448;-73
2023/06/02 03:44:58;;;;;;;13.45;9.20;;;;;;;17.23;62.64;94806.00;5064639;28;20016;-73
2023/06/02 03:47:23;;;;;;;12.27;8.68;;;;;;;17.24;62.95;94810.28;5064021;28;20673;-74
2023/06/02 03:49:50;;;;;;;13.88;9.45;;;;;;;17.24;62.69;94811.06;5064618;28;20029;-73
2023/06/02 03:52:15;;;;;;;9.68;8.05;;;;;;;17.24;62.64;94811.06;5064813;28;20089;-73
2023/06/02 03:54:40;;;;;;;11.30;8.30;;;;;;;17.24;62.74;94818.63;5064968;28;20017;-74
2023/06/02 03:57:06;;;;;;;11.52;8.95;;;;;;;17.25;62.50;94807.03;5063881;28;20025;-73
2023/06/02 03:59:31;;;;;;;12.23;9.38;;;;;;;17.29;62.59;94812.38;5080554;28;20059;-73
2023/06/02 04:01:57;;;;;;;14.90;9.23;;;;;;;17.33;62.51;94807.41;5062931;28;20418;-73
2023/06/02 04:04:22;;;;;;;13.23;9.40;;;;;;;17.34;62.09;94805.38;5063706;28;20077;-73
2023/06/02 04:06:47;;;;;;;12.27;9.43;;;;;;;17.39;62.39;94804.69;5063173;28;20024;-74
2023/06/02 04:09:13;;;;;;;14.77;9.63;;;;;;;17.41;62.17;94808.50;5065384;28;20686;-74
2023/06/02 04:11:39;;;;;;;13.52;9.40;;;;;;;17.44;62.26;94810.34;5063173;28;20056;-74
2023/06/02 04:14:04;;;;;;;12.65;9.27;;;;;;;17.45;61.88;94802.75;5064479;28;20085;-74
2023/06/02 04:16:30;;;;;;;16.90;9.88;;;;;;;17.45;62.28;94809.06;5063762;28;20021;-74
2023/06/02 04:18:55;;;;;;;12.27;8.48;;;;;;;17.47;61.90;94816.94;5064363;28;20032;-75
2023/06/02 04:21:20;;;;;;;14.55;9.80;;;;;;;17.48;61.72;94810.88;5068084;28;20100;-75
2023/06/02 04:23:46;;;;;;;12.63;9.40;;;;;;;17.51;61.88;94806.38;5064291;28;20422;-73
2023/06/02 04:26:11;;;;;;;13.10;9.75;;;;;;;17.52;61.59;94803.09;5065365;28;20032;-72
2023/06/02 04:28:37;;;;;;;11.27;10.07;;;;;;;17.56;61.77;94811.25;5062661;28;20108;-73
2023/06/02 04:31:02;;;;;;;15.13;10.30;;;;;;;17.58;61.62;94807.97;5063437;28;20391;-73
2023/06/02 04:33:28;;;;;;;12.00;9.32;;;;;;;17.58;61.52;94807.97;5064366;28;20670;-72
2023/06/02 04:35:56;;;;;;;17.10;10.63;;;;;;;17.61;61.63;94807.00;5064136;28;20473;-74
2023/06/02 04:38:21;;;;;;;14.70;9.48;;;;;;;17.61;61.61;94805.00;5063570;28;20028;-73
2023/06/02 04:40:47;;;;;;;13.32;8.82;;;;;;;17.66;61.40;94798.75;5062233;28;20651;-73
2023/06/02 04:43:12;;;;;;;11.10;9.07;;;;;;;17.70;60.83;94804.84;5064855;28;20036;-72
2023/06/02 04:45:43;;;;;;;12.82;9.15;;;;;;;17.69;61.31;94803.31;5063641;28;20031;-74
2023/06/02 04:48:09;;;;;;;12.27;9.13;;;;;;;17.74;61.18;94813.00;5063698;28;20035;-74
2023/06/02 04:50:35;;;;;;;12.02;9.50;;;;;;;17.76;61.22;94804.94;5062874;28;20104;-74
2023/06/02 04:53:00;;;;;;;11.95;8.80;;;;;;;17.77;61.15;94810.00;5062888;28;20016;-74
2023/06/02 04:55:26;;;;;;;15.05;9.27;;;;;;;17.83;61.18;94814.88;5063363;28;20418;-75
2023/06/02 04:57:51;;;;;;;14.82;10.15;;;;;;;17.83;61.37;94814.88;5063307;28;20398;-74
2023/06/02 05:00:17;;;;;;;13.50;9.65;;;;;;;17.86;61.36;94813.91;5064751;28;20078;-73
2023/06/02 05:02:42;;;;;;;14.20;9.65;;;;;;;17.89;61.39;94813.72;5063606;28;20467;-74
2023/06/02 05:05:08;;;;;;;17.05;10.15;;;;;;;17.77;61.31;94818.34;5064600;28;20514;-73
2023/06/02 05:07:33;;;;;;;17.38;9.32;;;;;;;17.89;60.84;94830.41;5063989;28;20082;-74
2023/06/02 05:09:59;;;;;;;15.15;8.80;;;;;;;17.87;61.26;94821.75;5066842;28;20039;-73
2023/06/02 05:12:27;;;;;;;11.55;9.68;;;;;;;17.91;61.25;94827.88;5068797;28;20032;-73
2023/06/02 05:14:55;;;;;;;17.98;10.43;;;;;;;17.97;60.88;94827.94;5067602;28;20021;-71
2023/06/02 05:17:23;;;;;;;15.82;9.52;;;;;;;18.00;60.87;94827.72;5069110;28;20414;-73
2023/06/02 05:19:49;;;;;;;11.02;9.13;;;;;;;18.02;60.97;94828.00;5065396;28;20028;-73
2023/06/02 05:22:14;;;;;;;15.95;10.02;;;;;;;18.07;60.77;94840.47;5069873;28;20036;-72
2023/06/02 05:24:39;;;;;;;13.35;9.45;;;;;;;18.09;60.51;94826.81;5069448;28;20050;-74
2023/06/02 05:27:05;;;;;;;14.32;9.75;;;;;;;18.15;60.19;94829.66;5069525;28;20035;-72
2023/06/02 05:29:30;;;;;;;12.55;9.25;;;;;;;18.22;59.82;94832.78;5066164;28;20028;-72
2023/06/02 05:31:56;;;;;;;13.07;9.30;;;;;;;18.29;59.96;94824.00;5065585;28;20116;-73
2023/06/02 05:34:22;;;;;;;11.55;9.25;;;;;;;18.26;59.78;94824.22;5067653;28;20017;-73
2023/06/02 05:36:47;;;;;;;13.95;8.95;;;;;;;18.31;59.73;94824.28;5066480;28;20544;-73
2023/06/02 05:39:13;;;;;;;20.80;11.25;;;;;;;18.39;59.66;94821.81;5066181;28;20036;-74
2023/06/02 05:41:38;;;;;;;11.50;8.90;;;;;;;18.43;59.59;94827.94;5066367;28;20083;-72
2023/06/02 05:44:03;;;;;;;11.88;9.57;;;;;;;18.44;59.60;94834.25;5066064;28;20479;-73
2023/06/02 05:46:29;;;;;;;14.57;10.70;;;;;;;18.50;59.57;94829.50;5066880;28;20025;-73
2023/06/02 05:48:55;;;;;;;14.38;9.80;;;;;;;18.55;59.75;94823.25;5066913;28;20033;-74
2023/06/02 05:51:21;;;;;;;13.63;10.10;;;;;;;18.56;59.35;94822.75;5067290;28;20119;-74
2023/06/02 05:53:49;;;;;;;11.57;9.18;;;;;;;18.63;59.34;94829.88;5066033;28;20107;-74
2023/06/02 05:56:15;;;;;;;13.48;9.75;;;;;;;18.64;59.10;94830.66;5067231;28;20130;-73
2023/06/02 05:58:41;;;;;;;11.60;8.88;;;;;;;18.69;59.06;94827.94;5066264;28;20495;-75
2023/06/02 06:01:08;;;;;;;13.27;9.68;;;;;;;18.76;59.08;94823.97;5067313;28;20024;-75
2023/06/02 06:03:34;;;;;;;12.40;9.98;;;;;;;18.78;58.52;94818.66;5048416;28;20028;-77
2023/06/02 06:06:00;;;;;;;14.73;10.85;;;;;;;18.81;58.39;94823.25;5065238;28;20503;-75
2023/06/02 06:08:26;;;;;;;13.98;10.25;;;;;;;18.76;58.61;94821.19;5065502;28;20036;-73
2023/06/02 06:10:51;;;;;;;15.43;10.60;;;;;;;18.83;58.52;94829.09;5069315;28;20467;-73
2023/06/02 06:13:16;;;;;;;13.88;10.27;;;;;;;18.91;58.60;94835.72;5065878;28;20020;-74
2023/06/02 06:15:42;;;;;;;14.85;11.00;;;;;;;19.00;57.59;94830.00;5065838;28;20478;-74
2023/06/02 06:18:07;;;;;;;12.77;9.85;;;;;;;19.01;57.30;94831.50;5067052;28;20119;-75
2023/06/02 06:20:33;;;;;;;13.10;9.05;;;;;;;19.12;57.00;94835.66;5080096;28;20025;-74
2023/06/02 06:22:58;;;;;;;14.40;10.88;;;;;;;19.09;57.76;94832.56;5066873;28;20125;-74
2023/06/02 06:25:23;;;;;;;14.95;9.68;;;;;;;19.20;57.28;94831.13;5064722;28;20025;-74
2023/06/02 06:27:49;;;;;;;12.00;9.85;;;;;;;19.25;57.43;94835.97;5082275;28;20017;-74
2023/06/02 06:30:14;;;;;;;18.40;10.90;;;;;;;19.30;57.00;94832.47;5066727;28;20052;-74
2023/06/02 06:32:40;;;;;;;16.52;11.35;;;;;;;19.37;56.81;94827.19;5065650;28;20085;-74
2023/06/02 06:35:07;;;;;;;14.95;9.70;;;;;;;19.42;56.61;94825.72;5081726;28;20550;-74
2023/06/02 06:37:33;;;;;;;14.52;9.65;;;;;;;19.51;56.66;94822.72;5065314;28;20027;-74
2023/06/02 06:39:58;;;;;;;12.18;9.45;;;;;;;19.55;56.16;94823.25;5086284;28;20024;-76
2023/06/02 06:42:24;;;;;;;15.50;9.75;;;;;;;19.61;56.32;94826.88;5085563;28;20119;-72
2023/06/02 06:44:50;;;;;;;12.55;9.32;;;;;;;19.70;56.47;94822.34;5086601;28;20032;-72
2023/06/02 06:47:16;;;;;;;16.45;9.98;;;;;;;19.81;55.56;94828.75;5085465;28;20032;-73
2023/06/02 06:49:41;;;;;;;12.73;8.80;;;;;;;19.76;55.99;94825.91;5084605;28;20020;-73
2023/06/02 06:52:07;;;;;;;14.48;9.15;;;;;;;19.93;55.27;94826.00;5086253;28;20036;-72
2023/06/02 06:54:32;;;;;;;18.05;10.23;;;;;;;20.08;55.36;94824.53;5083947;28;20402;-73
2023/06/02 06:56:58;;;;;;;13.98;9.98;;;;;;;20.08;55.06;94818.19;5084579;28;20020;-76
2023/06/02 06:59:23;;;;;;;14.40;9.75;;;;;;;20.25;54.74;94827.38;5066886;28;20067;-75
2023/06/02 07:01:48;;;;;;;17.25;10.15;;;;;;;20.26;54.92;94814.19;5068108;28;20418;-74
2023/06/02 07:04:14;;;;;;;17.58;10.02;;;;;;;20.40;54.71;94822.34;5086028;28;20476;-72
2023/06/02 07:06:39;;;;;;;13.52;10.05;;;;;;;20.49;54.18;94820.63;5087168;28;20064;-73
2023/06/02 07:09:05;;;;;;;15.90;9.02;;;;;;;20.60;54.00;94824.19;5084128;28;20028;-73
2023/06/02 07:11:30;;;;;;;10.85;8.40;;;;;;;20.69;51.04;94829.50;5085576;28;20024;-73
2023/06/02 07:13:56;;;;;;;15.23;8.68;;;;;;;20.84;50.57;94822.94;5085974;28;20032;-73
2023/06/02 07:16:21;;;;;;;12.90;8.43;;;;;;;21.01;51.02;94828.53;5084711;28;20032;-73
2023/06/02 07:18:48;;;;;;;13.02;8.05;;;;;;;21.13;50.59;94819.63;5084792;28;20147;-73
2023/06/02 07:21:13;;;;;;;13.57;8.50;;;;;;;21.27;50.30;94823.41;5083371;28;20057;-73
2023/06/02 07:23:39;;;;;;;10.43;7.65;;;;;;;21.46;50.50;94830.03;5086198;28;20020;-73
2023/06/02 07:26:04;;;;;;;9.48;6.97;;;;;;;21.68;49.15;94822.88;5084820;28;20028;-74
2023/06/02 07:28:30;;;;;;;12.77;7.88;;;;;;;21.71;48.45;94825.41;5067044;28;20401;-73
2023/06/02 07:30:55;;;;;;;20.08;11.20;;;;;;;21.80;48.47;94823.63;5085406;28;20028;-72
2023/06/02 07:33:21;;;;;;;12.93;8.48;;;;;;;21.87;48.91;94814.69;5084820;28;20149;-72
2023/06/02 07:35:46;;;;;;;11.07;8.13;;;;;;;22.07;49.35;94835.97;5085979;28;20487;-72
2023/06/02 07:38:12;;;;;;;10.93;6.82;;;;;;;22.12;48.13;94840.81;5084321;28;20406;-73
2023/06/02 07:40:37;;;;;;;12.45;6.97;;;;;;;22.23;46.92;94843.56;5084281;28;20085;-75
2023/06/02 07:43:03;;;;;;;13.57;7.00;;;;;;;22.24;45.56;94845.84;5084704;28;20490;-73
2023/06/02 07:45:28;;;;;;;11.50;6.80;;;;;;;22.31;45.92;94841.75;5083935;28;20498;-73
2023/06/02 07:47:54;;;;;;;9.15;6.40;;;;;;;22.36;45.73;94843.75;5084111;28;20076;-73
2023/06/02 07:50:20;;;;;;;10.88;6.38;;;;;;;22.49;44.91;94832.75;5090864;28;20024;-73
2023/06/02 07:52:45;;;;;;;9.25;5.78;;;;;;;22.59;44.34;94846.41;5086800;28;20024;-72
2023/06/02 07:55:11;;;;;;;8.55;5.78;;;;;;;22.67;44.48;94842.56;5084011;28;20024;-73
2023/06/02 07:57:37;;;;;;;10.68;5.70;;;;;;;22.74;44.37;94844.03;5085288;28;20024;-73
2023/06/02 08:00:12;;;;;;;8.93;5.70;;;;;;;22.84;44.42;94847.31;5085410;28;20126;-73
2023/06/02 08:02:40;;;;;;;9.88;6.15;;;;;;;22.95;44.25;94847.25;5067751;28;20027;-73
2023/06/02 08:05:06;;;;;;;8.65;6.65;;;;;;;23.03;44.41;94842.59;5084627;28;20240;-72
2023/06/02 08:07:31;;;;;;;9.95;6.25;;;;;;;23.08;44.24;94844.59;5084757;28;20398;-72
2023/06/02 08:09:56;;;;;;;9.30;5.50;;;;;;;23.12;43.47;94844.31;5083971;28;20077;-72
2023/06/02 08:12:22;;;;;;;8.07;5.50;;;;;;;23.09;43.77;94843.31;5084037;28;20012;-72
2023/06/02 08:14:48;;;;;;;9.93;5.88;;;;;;;23.05;42.53;94843.59;5085353;28;20032;-72
2023/06/02 08:17:14;;;;;;;12.20;6.65;;;;;;;23.00;42.83;94826.81;5084135;28;20028;-73
2023/06/02 08:19:39;;;;;;;10.75;6.95;;;;;;;23.10;43.07;94824.44;5085301;28;20028;-72
2023/06/02 08:22:05;;;;;;;10.75;6.20;;;;;;;23.16;43.53;94825.91;5082960;28;20028;-73
2023/06/02 08:24:31;;;;;;;9.75;6.55;;;;;;;23.24;43.58;94818.47;5085028;28;20096;-77
2023/06/02 08:26:57;;;;;;;9.63;6.38;;;;;;;23.37;43.68;94817.06;5085013;28;20107;-74
2023/06/02 08:29:23;;;;;;;9.40;6.65;;;;;;;23.55;43.58;94822.75;5084377;28;20668;-75
2023/06/02 08:31:48;;;;;;;11.00;6.22;;;;;;;23.68;43.67;94815.75;5083653;28;20173;-74
2023/06/02 08:34:15;;;;;;;10.90;6.15;;;;;;;23.73;42.93;94812.13;5083800;28;20107;-74
2023/06/02 08:36:40;;;;;;;8.05;6.20;;;;;;;23.82;41.18;94800.56;5084552;28;20017;-74
2023/06/02 08:39:08;;;;;;;7.35;5.50;;;;;;;23.98;42.12;94799.59;5085445;28;20058;-73
2023/06/02 08:41:36;;;;;;;8.93;5.65;;;;;;;24.03;42.16;94793.16;5084878;28;20031;-72
2023/06/02 08:44:02;;;;;;;10.82;5.97;;;;;;;24.18;41.96;94798.31;5085021;28;20035;-74
2023/06/02 08:46:27;;;;;;;9.20;6.03;;;;;;;24.10;41.10;94789.75;5086947;28;20024;-74
2023/06/02 08:48:55;;;;;;;9.07;5.60;;;;;;;24.18;41.20;94781.47;5088854;28;20727;-74
2023/06/02 08:51:24;;;;;;;7.88;6.30;;;;;;;24.46;40.96;94783.19;5086488;28;20020;-74
2023/06/02 08:53:50;;;;;;;10.45;5.85;;;;;;;24.63;40.62;94783.69;5089502;28;20138;-73
2023/06/02 08:56:16;;;;;;;10.07;5.57;;;;;;;24.79;39.97;94777.06;5086334;28;20057;-74
2023/06/02 08:58:45;;;;;;;8.93;5.85;;;;;;;24.87;40.05;94774.38;5087186;28;20563;-75
2023/06/02 09:01:11;;;;;;;8.45;5.47;;;;;;;25.04;39.14;94763.63;5086453;28;20039;-74
2023/06/02 09:03:36;;;;;;;7.75;5.15;;;;;;;25.18;39.20;94755.25;5086676;28;20024;-74
2023/06/02 09:06:20;;;;;;;9.73;5.82;;;;;;;25.37;38.61;94765.13;5086601;28;20055;-75
2023/06/02 09:09:11;;;;;;;7.57;4.68;;;;;;;25.45;37.47;94753.97;5086951;28;20407;-82
2023/06/02 09:11:37;;;;;;;6.40;4.18;;;;;;;25.31;36.09;94749.63;5084392;28;20093;-72
2023/06/02 09:14:22;;;;;;;7.32;4.45;;;;;;;25.53;35.94;94754.09;5087495;28;20032;-74
2023/06/02 09:16:48;;;;;;;5.70;4.30;;;;;;;25.71;36.47;94752.47;5088073;28;20052;-73
2023/06/02 09:19:14;;;;;;;8.32;4.65;;;;;;;25.75;35.07;94745.25;5086786;28;20042;-74
2023/06/02 09:21:40;;;;;;;5.15;4.55;;;;;;;25.81;35.46;94745.16;5085738;28;20024;-74
2023/06/02 09:24:05;;;;;;;7.30;4.65;;;;;;;26.09;35.74;94739.69;5088417;28;20119;-73
2023/06/02 09:26:31;;;;;;;8.10;4.85;;;;;;;26.21;35.92;94743.03;5086738;28;20494;-73
2023/06/02 09:29:01;;;;;;;10.43;5.68;;;;;;;26.47;36.21;94742.19;5087233;28;20073;-74
2023/06/02 09:31:30;;;;;;;10.48;5.03;;;;;;;26.74;35.87;94742.88;5087393;28;20066;-74
2023/06/02 09:33:58;;;;;;;9.85;5.45;;;;;;;26.89;35.22;94737.34;5069133;28;20028;-75
2023/06/02 09:36:29;;;;;;;5.25;4.18;;;;;;;26.92;32.94;94732.69;5086389;28;20023;-74
2023/06/02 09:38:54;;;;;;;7.53;4.13;;;;;;;27.12;33.34;94731.94;5085858;28;20513;-73
2023/06/02 09:41:20;;;;;;;5.45;4.00;;;;;;;27.30;33.27;94735.06;5086799;28;20032;-73
2023/06/02 09:43:45;;;;;;;6.65;4.07;;;;;;;27.49;32.84;94738.44;5086279;28;20036;-76
2023/06/02 09:46:14;;;;;;;6.05;4.88;;;;;;;27.58;33.18;94735.09;5086817;28;20081;-76
2023/06/02 09:48:53;;;;;;;6.00;4.47;;;;;;;27.77;32.77;94729.22;5072554;28;20062;-76
2023/06/02 09:51:21;;;;;;;6.03;4.75;;;;;;;27.87;32.53;94732.28;5085805;28;20482;-77
2023/06/02 09:53:47;;;;;;;7.50;4.00;;;;;;;28.05;32.16;94731.25;5085773;28;20024;-76
2023/06/02 09:56:14;;;;;;;6.57;4.82;;;;;;;28.37;32.00;94718.75;5084685;28;20030;-76
2023/06/02 09:58:39;;;;;;;9.43;4.53;;;;;;;28.52;31.68;94722.41;5085941;28;20525;-74
2023/06/02 10:01:05;;;;;;;8.32;4.60;;;;;;;28.79;31.13;94722.09;5084972;28;20051;-72
2023/06/02 10:03:30;;;;;;;7.68;4.13;;;;;;;28.96;29.90;94716.66;5069071;28;20115;-76
2023/06/02 10:06:13;;;;;;;6.38;4.28;;;;;;;29.06;29.92;94711.16;5085938;28;20083;-76
2023/06/02 10:08:41;;;;;;;9.30;5.88;;;;;;;29.34;29.96;94710.22;5085664;28;20024;-74
2023/06/02 10:11:29;;;;;;;7.47;5.20;;;;;;;29.59;29.34;94710.41;5087385;28;20028;-77
2023/06/02 10:14:20;;;;;;;7.35;4.45;;;;;;;29.70;28.99;94703.59;5085547;28;20105;-75
2023/06/02 10:16:46;;;;;;;5.10;4.32;;;;;;;29.79;28.70;94700.91;5087338;28;20036;-75
2023/06/02 10:19:20;;;;;;;7.93;4.60;;;;;;;30.00;28.60;94705.59;5086486;28;20407;-75
2023/06/02 10:21:46;;;;;;;5.70;4.10;;;;;;;30.09;28.54;94696.47;5084642;28;20125;-76
2023/06/02 10:24:25;;;;;;;6.82;4.57;;;;;;;30.21;30.42;94703.25;5086940;28;20490;-75
2023/06/02 10:27:22;;;;;;;6.72;4.70;;;;;;;30.22;29.90;94693.41;5067338;28;20415;-74
2023/06/02 10:29:51;;;;;;;6.53;4.22;;;;;;;30.25;29.37;94692.28;5086910;28;20020;-74
2023/06/02 10:32:21;;;;;;;7.18;4.35;;;;;;;30.21;29.94;94688.31;5085024;28;20028;-74
2023/06/02 10:34:53;;;;;;;5.75;4.50;;;;;;;30.14;30.10;94693.44;5084674;28;20075;-75
2023/06/02 10:37:20;;;;;;;7.70;4.55;;;;;;;30.15;27.57;94688.53;5085572;28;20020;-75
2023/06/02 10:39:55;;;;;;;9.93;4.57;;;;;;;30.18;28.55;94684.56;5083953;28;20078;-76
2023/06/02 10:42:25;;;;;;;7.95;4.85;;;;;;;30.31;28.73;94680.72;5090516;28;20016;-76
2023/06/02 10:44:52;;;;;;;8.98;5.72;;;;;;;30.31;28.75;94681.47;5085771;28;20028;-77
2023/06/02 10:47:17;;;;;;;6.22;4.13;;;;;;;30.36;28.85;94672.00;5070953;28;20528;-76
2023/06/02 10:50:03;;;;;;;6.22;4.20;;;;;;;30.42;28.71;94664.03;5086235;28;20107;-75
2023/06/02 10:52:30;;;;;;;5.32;4.13;;;;;;;30.58;29.44;94661.84;5084274;28;20088;-76
2023/06/02 10:55:07;;;;;;;5.78;4.10;;;;;;;30.67;28.02;94666.13;5086598;28;20024;-75
2023/06/02 10:57:52;;;;;;;5.90;3.72;;;;;;;30.54;27.49;94674.91;5085524;28;20062;-75
2023/06/02 11:00:49;;;;;;;5.97;4.07;;;;;;;30.22;26.27;94676.41;5084998;28;20088;-75
2023/06/02 11:03:15;;;;;;;5.03;4.10;;;;;;;30.15;27.74;94671.53;5086502;28;20024;-75
2023/06/02 11:05:40;;;;;;;6.00;3.90;;;;;;;30.19;28.27;94665.47;5083262;28;20042;-74
2023/06/02 11:08:18;;;;;;;7.72;4.50;;;;;;;30.40;28.63;94665.94;5084895;28;20040;-74
2023/06/02 11:10:57;;;;;;;11.90;4.97;;;;;;;30.47;27.66;94667.22;5084105;28;20081;-78
2023/06/02 11:13:24;;;;;;;4.35;3.78;;;;;;;30.73;27.61;94675.19;5084508;28;20020;-75
2023/06/02 11:16:10;;;;;;;5.25;3.72;;;;;;;30.87;26.80;94655.81;5085974;28;20107;-75
2023/06/02 11:18:39;;;;;;;6.03;4.20;;;;;;;31.03;27.97;94657.19;5070910;28;20044;-75
2023/06/02 11:21:21;;;;;;;7.00;4.22;;;;;;;31.22;26.54;94662.31;5084941;28;20048;-76
2023/06/02 11:23:46;;;;;;;7.68;3.95;;;;;;;31.22;27.31;94661.56;5084209;28;20030;-76
2023/06/02 11:26:17;;;;;;;6.47;4.00;;;;;;;31.13;25.50;94654.44;5084354;28;20095;-76